sensor_id;sensor_type;location;lat;lon;timestamp;temperature;humidity
52731;DHT22;38624;53.242;6.974;2023-12-29T00:01:56;9.60;99.90
52731;DHT22;38624;53.242;6.974;2023-12-29T00:04:22;9.70;99.90
52731;DHT22;38624;53.242;6.974;2023-12-29T00:06:48;9.70;99.90
52731;DHT22;38624;53.242;6.974;2023-12-29T00:09:17;9.70;99.90
52731;DHT22;38624;53.242;6.974;2023-12-29T00:11:49;9.60;99.90
52731;DHT22;38624;53.242;6.974;2023-12-29T00:14:15;9.70;99.90
52731;DHT22;38624;53.242;6.974;2023-12-29T00:16:41;9.70;99.90
52731;DHT22;38624;53.242;6.974;2023-12-29T00:19:07;9.70;99.90
52731;DHT22;38624;53.242;6.974;2023-12-29T00:21:32;9.70;99.90
52731;DHT22;38624;53.242;6.974;2023-12-29T00:23:58;9.60;99.90
52731;DHT22;38624;53.242;6.974;2023-12-29T00:26:24;9.70;99.90
52731;DHT22;38624;53.242;6.974;2023-12-29T00:28:50;9.80;99.90
52731;DHT22;38624;53.242;6.974;2023-12-29T00:31:16;9.70;99.90
52731;DHT22;38624;53.242;6.974;2023-12-29T00:33:43;9.80;99.90
52731;DHT22;38624;53.242;6.974;2023-12-29T00:36:17;9.90;99.90
52731;DHT22;38624;53.242;6.974;2023-12-29T00:38:43;9.80;99.90
52731;DHT22;38624;53.242;6.974;2023-12-29T00:41:09;9.80;99.90
52731;DHT22;38624;53.242;6.974;2023-12-29T00:43:35;9.60;99.90
52731;DHT22;38624;53.242;6.974;2023-12-29T00:46:04;9.40;99.90
52731;DHT22;38624;53.242;6.974;2023-12-29T00:48:33;9.50;99.90
52731;DHT22;38624;53.242;6.974;2023-12-29T00:51:01;9.50;99.90
52731;DHT22;38624;53.242;6.974;2023-12-29T00:53:28;9.50;99.90
52731;DHT22;38624;53.242;6.974;2023-12-29T00:55:54;9.50;99.90
52731;DHT22;38624;53.242;6.974;2023-12-29T00:58:20;9.50;99.90
52731;DHT22;38624;53.242;6.974;2023-12-29T01:00:46;9.60;99.90
52731;DHT22;38624;53.242;6.974;2023-12-29T01:03:12;9.60;99.90
52731;DHT22;38624;53.242;6.974;2023-12-29T01:05:37;9.60;99.90
52731;DHT22;38624;53.242;6.974;2023-12-29T01:08:03;9.70;99.90
52731;DHT22;38624;53.242;6.974;2023-12-29T01:10:29;9.60;99.90
52731;DHT22;38624;53.242;6.974;2023-12-29T01:12:54;9.50;99.90
52731;DHT22;38624;53.242;6.974;2023-12-29T01:15:20;9.50;99.90
52731;DHT22;38624;53.242;6.974;2023-12-29T01:17:46;9.60;99.90
52731;DHT22;38624;53.242;6.974;2023-12-29T01:20:12;9.70;99.90
52731;DHT22;38624;53.242;6.974;2023-12-29T01:22:38;9.60;99.90
52731;DHT22;38624;53.242;6.974;2023-12-29T01:25:03;9.50;99.90
52731;DHT22;38624;53.242;6.974;2023-12-29T01:27:29;9.60;99.90
52731;DHT22;38624;53.242;6.974;2023-12-29T01:29:55;9.60;99.90
52731;DHT22;38624;53.242;6.974;2023-12-29T01:32:21;9.40;99.90
52731;DHT22;38624;53.242;6.974;2023-12-29T01:34:47;9.30;99.90
52731;DHT22;38624;53.242;6.974;2023-12-29T01:37:13;9.30;99.90
52731;DHT22;38624;53.242;6.974;2023-12-29T01:39:39;9.20;99.90
52731;DHT22;38624;53.242;6.974;2023-12-29T01:42:07;9.50;99.90
52731;DHT22;38624;53.242;6.974;2023-12-29T01:44:33;9.10;99.90
52731;DHT22;38624;53.242;6.974;2023-12-29T01:47:00;9.10;99.90
52731;DHT22;38624;53.242;6.974;2023-12-29T01:49:26;9.10;99.90
52731;DHT22;38624;53.242;6.974;2023-12-29T01:51:58;9.10;99.90
52731;DHT22;38624;53.242;6.974;2023-12-29T01:54:26;9.10;99.90
52731;DHT22;38624;53.242;6.974;2023-12-29T01:56:56;9.10;99.90
52731;DHT22;38624;53.242;6.974;2023-12-29T01:59:22;9.20;99.90
52731;DHT22;38624;53.242;6.974;2023-12-29T02:01:49;9.30;99.90
52731;DHT22;38624;53.242;6.974;2023-12-29T02:04:15;9.30;99.90
52731;DHT22;38624;53.242;6.974;2023-12-29T02:06:42;9.30;99.90
52731;DHT22;38624;53.242;6.974;2023-12-29T02:09:08;9.40;99.90
52731;DHT22;38624;53.242;6.974;2023-12-29T02:11:34;9.40;99.90
52731;DHT22;38624;53.242;6.974;2023-12-29T02:14:00;9.30;99.90
52731;DHT22;38624;53.242;6.974;2023-12-29T02:21:45;9.20;99.90
52731;DHT22;38624;53.242;6.974;2023-12-29T02:24:11;9.20;99.90
52731;DHT22;38624;53.242;6.974;2023-12-29T02:26:36;9.10;99.90
52731;DHT22;38624;53.242;6.974;2023-12-29T02:29:04;9.10;99.90
52731;DHT22;38624;53.242;6.974;2023-12-29T02:31:35;9.00;99.90
52731;DHT22;38624;53.242;6.974;2023-12-29T02:34:05;8.70;99.90
52731;DHT22;38624;53.242;6.974;2023-12-29T02:36:33;8.40;99.90
52731;DHT22;38624;53.242;6.974;2023-12-29T02:38:59;8.30;99.90
52731;DHT22;38624;53.242;6.974;2023-12-29T02:41:25;8.40;99.90
52731;DHT22;38624;53.242;6.974;2023-12-29T02:43:51;8.00;99.90
52731;DHT22;38624;53.242;6.974;2023-12-29T02:46:17;7.80;99.90
52731;DHT22;38624;53.242;6.974;2023-12-29T02:48:42;7.60;99.90
52731;DHT22;38624;53.242;6.974;2023-12-29T02:51:08;7.50;99.90
52731;DHT22;38624;53.242;6.974;2023-12-29T02:53:34;7.60;99.90
52731;DHT22;38624;53.242;6.974;2023-12-29T02:55:59;7.60;99.90
52731;DHT22;38624;53.242;6.974;2023-12-29T02:58:25;7.60;99.90
52731;DHT22;38624;53.242;6.974;2023-12-29T03:00:51;7.70;99.90
52731;DHT22;38624;53.242;6.974;2023-12-29T03:03:16;7.90;99.90
52731;DHT22;38624;53.242;6.974;2023-12-29T03:05:42;7.90;99.90
52731;DHT22;38624;53.242;6.974;2023-12-29T03:08:08;8.10;99.90
52731;DHT22;38624;53.242;6.974;2023-12-29T03:10:33;8.10;99.90
52731;DHT22;38624;53.242;6.974;2023-12-29T03:12:59;8.10;99.90
52731;DHT22;38624;53.242;6.974;2023-12-29T03:15:25;8.10;99.90
52731;DHT22;38624;53.242;6.974;2023-12-29T03:17:50;8.10;99.90
52731;DHT22;38624;53.242;6.974;2023-12-29T03:20:16;7.90;99.90
52731;DHT22;38624;53.242;6.974;2023-12-29T03:22:41;7.80;99.90
52731;DHT22;38624;53.242;6.974;2023-12-29T03:25:07;7.80;99.90
52731;DHT22;38624;53.242;6.974;2023-12-29T03:27:33;7.70;99.90
52731;DHT22;38624;53.242;6.974;2023-12-29T03:29:59;7.90;99.90
52731;DHT22;38624;53.242;6.974;2023-12-29T03:32:24;8.20;99.90
52731;DHT22;38624;53.242;6.974;2023-12-29T03:34:50;7.90;99.90
52731;DHT22;38624;53.242;6.974;2023-12-29T03:37:15;8.00;99.90
52731;DHT22;38624;53.242;6.974;2023-12-29T03:39:41;8.30;99.90
52731;DHT22;38624;53.242;6.974;2023-12-29T03:42:07;8.30;99.90
52731;DHT22;38624;53.242;6.974;2023-12-29T03:44:32;8.40;99.90
52731;DHT22;38624;53.242;6.974;2023-12-29T03:46:59;8.60;99.90
52731;DHT22;38624;53.242;6.974;2023-12-29T03:49:24;8.60;99.90
52731;DHT22;38624;53.242;6.974;2023-12-29T03:51:50;8.70;99.90
52731;DHT22;38624;53.242;6.974;2023-12-29T03:54:16;8.70;99.90
52731;DHT22;38624;53.242;6.974;2023-12-29T03:56:43;8.80;99.90
52731;DHT22;38624;53.242;6.974;2023-12-29T03:59:09;8.80;99.90
52731;DHT22;38624;53.242;6.974;2023-12-29T04:01:35;8.90;99.90
52731;DHT22;38624;53.242;6.974;2023-12-29T04:04:00;9.00;99.90
52731;DHT22;38624;53.242;6.974;2023-12-29T04:06:26;9.10;99.90
52731;DHT22;38624;53.242;6.974;2023-12-29T04:08:52;8.70;99.90
52731;DHT22;38624;53.242;6.974;2023-12-29T04:11:17;8.70;99.90
52731;DHT22;38624;53.242;6.974;2023-12-29T04:13:43;8.70;99.90
52731;DHT22;38624;53.242;6.974;2023-12-29T04:16:09;8.70;99.90
52731;DHT22;38624;53.242;6.974;2023-12-29T04:18:34;8.90;99.90
52731;DHT22;38624;53.242;6.974;2023-12-29T04:21:00;9.20;99.90
52731;DHT22;38624;53.242;6.974;2023-12-29T04:23:26;9.20;99.90
52731;DHT22;38624;53.242;6.974;2023-12-29T04:25:51;8.70;99.90
52731;DHT22;38624;53.242;6.974;2023-12-29T04:28:17;8.60;99.90
52731;DHT22;38624;53.242;6.974;2023-12-29T04:30:43;8.60;99.90
52731;DHT22;38624;53.242;6.974;2023-12-29T04:33:08;8.60;99.90
52731;DHT22;38624;53.242;6.974;2023-12-29T04:35:34;8.60;99.90
52731;DHT22;38624;53.242;6.974;2023-12-29T04:38:00;8.70;99.90
52731;DHT22;38624;53.242;6.974;2023-12-29T04:40:25;8.70;99.90
52731;DHT22;38624;53.242;6.974;2023-12-29T04:42:51;9.00;99.90
52731;DHT22;38624;53.242;6.974;2023-12-29T04:45:17;8.70;99.90
52731;DHT22;38624;53.242;6.974;2023-12-29T04:47:43;9.50;99.90
52731;DHT22;38624;53.242;6.974;2023-12-29T04:50:09;8.70;99.90
52731;DHT22;38624;53.242;6.974;2023-12-29T04:52:34;8.90;99.90
52731;DHT22;38624;53.242;6.974;2023-12-29T04:55:00;8.90;99.90
52731;DHT22;38624;53.242;6.974;2023-12-29T04:57:26;8.80;99.90
52731;DHT22;38624;53.242;6.974;2023-12-29T04:59:51;8.80;99.90
52731;DHT22;38624;53.242;6.974;2023-12-29T05:02:17;8.90;99.90
52731;DHT22;38624;53.242;6.974;2023-12-29T05:04:45;8.90;99.90
52731;DHT22;38624;53.242;6.974;2023-12-29T05:07:11;8.80;99.90
52731;DHT22;38624;53.242;6.974;2023-12-29T05:09:37;8.90;99.90
52731;DHT22;38624;53.242;6.974;2023-12-29T05:12:03;8.80;99.90
52731;DHT22;38624;53.242;6.974;2023-12-29T05:14:29;8.70;99.90
52731;DHT22;38624;53.242;6.974;2023-12-29T05:16:54;8.80;99.90
52731;DHT22;38624;53.242;6.974;2023-12-29T05:19:20;8.90;99.90
52731;DHT22;38624;53.242;6.974;2023-12-29T05:21:47;8.90;99.90
52731;DHT22;38624;53.242;6.974;2023-12-29T05:24:15;8.80;99.90
52731;DHT22;38624;53.242;6.974;2023-12-29T05:26:40;8.80;99.90
52731;DHT22;38624;53.242;6.974;2023-12-29T05:29:06;8.80;99.90
52731;DHT22;38624;53.242;6.974;2023-12-29T05:31:32;8.90;99.90
52731;DHT22;38624;53.242;6.974;2023-12-29T05:33:57;8.80;99.90
52731;DHT22;38624;53.242;6.974;2023-12-29T05:36:23;8.80;99.90
52731;DHT22;38624;53.242;6.974;2023-12-29T05:38:49;9.30;99.90
52731;DHT22;38624;53.242;6.974;2023-12-29T05:41:14;9.00;99.90
52731;DHT22;38624;53.242;6.974;2023-12-29T05:43:40;8.90;99.90
52731;DHT22;38624;53.242;6.974;2023-12-29T05:46:10;9.00;99.90
52731;DHT22;38624;53.242;6.974;2023-12-29T05:48:39;9.00;99.90
52731;DHT22;38624;53.242;6.974;2023-12-29T05:51:13;8.90;99.90
52731;DHT22;38624;53.242;6.974;2023-12-29T05:53:42;8.90;99.90
52731;DHT22;38624;53.242;6.974;2023-12-29T05:56:09;9.10;99.90
52731;DHT22;38624;53.242;6.974;2023-12-29T05:58:34;9.10;99.90
52731;DHT22;38624;53.242;6.974;2023-12-29T06:01:00;9.20;99.90
52731;DHT22;38624;53.242;6.974;2023-12-29T06:03:27;9.20;99.90
52731;DHT22;38624;53.242;6.974;2023-12-29T06:05:53;9.20;99.90
52731;DHT22;38624;53.242;6.974;2023-12-29T06:08:19;9.20;99.90
52731;DHT22;38624;53.242;6.974;2023-12-29T06:10:44;9.10;99.90
52731;DHT22;38624;53.242;6.974;2023-12-29T06:13:10;9.20;99.90
52731;DHT22;38624;53.242;6.974;2023-12-29T06:15:36;9.10;99.90
52731;DHT22;38624;53.242;6.974;2023-12-29T06:18:02;9.20;99.90
52731;DHT22;38624;53.242;6.974;2023-12-29T06:20:28;9.10;99.90
52731;DHT22;38624;53.242;6.974;2023-12-29T06:22:55;9.20;99.90
52731;DHT22;38624;53.242;6.974;2023-12-29T06:25:21;9.20;99.90
52731;DHT22;38624;53.242;6.974;2023-12-29T06:27:47;9.10;99.90
52731;DHT22;38624;53.242;6.974;2023-12-29T06:30:13;9.10;99.90
52731;DHT22;38624;53.242;6.974;2023-12-29T06:32:39;9.10;99.90
52731;DHT22;38624;53.242;6.974;2023-12-29T06:35:06;9.10;99.90
52731;DHT22;38624;53.242;6.974;2023-12-29T06:37:32;9.00;99.90
52731;DHT22;38624;53.242;6.974;2023-12-29T06:39:58;9.00;99.90
52731;DHT22;38624;53.242;6.974;2023-12-29T06:42:23;9.10;99.90
52731;DHT22;38624;53.242;6.974;2023-12-29T06:44:49;9.10;99.90
52731;DHT22;38624;53.242;6.974;2023-12-29T06:47:15;9.00;99.90
52731;DHT22;38624;53.242;6.974;2023-12-29T06:49:40;9.00;99.90
52731;DHT22;38624;53.242;6.974;2023-12-29T06:52:06;9.00;99.90
52731;DHT22;38624;53.242;6.974;2023-12-29T06:54:33;8.90;99.90
52731;DHT22;38624;53.242;6.974;2023-12-29T06:56:59;8.90;99.90
52731;DHT22;38624;53.242;6.974;2023-12-29T06:59:25;8.90;99.90
52731;DHT22;38624;53.242;6.974;2023-12-29T07:01:51;8.80;99.90
52731;DHT22;38624;53.242;6.974;2023-12-29T07:04:17;8.60;99.90
52731;DHT22;38624;53.242;6.974;2023-12-29T07:06:42;8.50;99.90
52731;DHT22;38624;53.242;6.974;2023-12-29T07:09:08;8.50;99.90
52731;DHT22;38624;53.242;6.974;2023-12-29T07:11:35;8.30;99.90
52731;DHT22;38624;53.242;6.974;2023-12-29T07:14:01;8.20;99.90
52731;DHT22;38624;53.242;6.974;2023-12-29T07:16:27;8.20;99.90
52731;DHT22;38624;53.242;6.974;2023-12-29T07:18:53;8.20;99.90
52731;DHT22;38624;53.242;6.974;2023-12-29T07:21:19;8.20;99.90
52731;DHT22;38624;53.242;6.974;2023-12-29T07:23:44;8.10;99.90
52731;DHT22;38624;53.242;6.974;2023-12-29T07:26:10;8.10;99.90
52731;DHT22;38624;53.242;6.974;2023-12-29T07:28:36;8.20;99.90
52731;DHT22;38624;53.242;6.974;2023-12-29T07:31:02;8.10;99.90
52731;DHT22;38624;53.242;6.974;2023-12-29T07:33:27;8.20;99.90
52731;DHT22;38624;53.242;6.974;2023-12-29T07:35:53;8.30;99.90
52731;DHT22;38624;53.242;6.974;2023-12-29T07:38:19;8.30;99.90
52731;DHT22;38624;53.242;6.974;2023-12-29T07:40:45;8.40;99.90
52731;DHT22;38624;53.242;6.974;2023-12-29T07:43:13;8.40;99.90
52731;DHT22;38624;53.242;6.974;2023-12-29T07:45:39;8.40;99.90
52731;DHT22;38624;53.242;6.974;2023-12-29T07:48:05;8.60;99.90
52731;DHT22;38624;53.242;6.974;2023-12-29T07:50:31;8.30;99.90
52731;DHT22;38624;53.242;6.974;2023-12-29T07:52:56;8.20;99.90
52731;DHT22;38624;53.242;6.974;2023-12-29T07:55:22;8.10;99.90
52731;DHT22;38624;53.242;6.974;2023-12-29T07:57:48;7.90;99.90
52731;DHT22;38624;53.242;6.974;2023-12-29T08:00:17;7.80;99.90
52731;DHT22;38624;53.242;6.974;2023-12-29T08:02:43;7.90;99.90
52731;DHT22;38624;53.242;6.974;2023-12-29T08:05:09;7.90;99.90
52731;DHT22;38624;53.242;6.974;2023-12-29T08:07:38;7.80;99.90
52731;DHT22;38624;53.242;6.974;2023-12-29T08:10:05;8.00;99.90
52731;DHT22;38624;53.242;6.974;2023-12-29T08:12:31;7.70;99.90
52731;DHT22;38624;53.242;6.974;2023-12-29T08:14:59;7.60;99.90
52731;DHT22;38624;53.242;6.974;2023-12-29T08:17:25;7.70;99.90
52731;DHT22;38624;53.242;6.974;2023-12-29T08:19:50;7.80;99.90
52731;DHT22;38624;53.242;6.974;2023-12-29T08:22:16;7.80;99.90
52731;DHT22;38624;53.242;6.974;2023-12-29T08:24:42;8.00;99.90
52731;DHT22;38624;53.242;6.974;2023-12-29T08:27:12;8.00;99.90
52731;DHT22;38624;53.242;6.974;2023-12-29T08:29:38;8.40;99.90
52731;DHT22;38624;53.242;6.974;2023-12-29T08:32:04;8.00;99.90
52731;DHT22;38624;53.242;6.974;2023-12-29T08:34:30;8.10;99.90
52731;DHT22;38624;53.242;6.974;2023-12-29T08:36:55;8.70;99.90
52731;DHT22;38624;53.242;6.974;2023-12-29T08:39:22;8.50;99.90
52731;DHT22;38624;53.242;6.974;2023-12-29T08:41:48;8.30;99.90
52731;DHT22;38624;53.242;6.974;2023-12-29T08:44:17;8.40;99.90
52731;DHT22;38624;53.242;6.974;2023-12-29T08:46:42;8.40;99.90
52731;DHT22;38624;53.242;6.974;2023-12-29T08:49:08;8.40;99.90
52731;DHT22;38624;53.242;6.974;2023-12-29T08:51:34;8.50;99.90
52731;DHT22;38624;53.242;6.974;2023-12-29T08:54:00;8.40;99.90
52731;DHT22;38624;53.242;6.974;2023-12-29T08:56:25;8.20;99.90
52731;DHT22;38624;53.242;6.974;2023-12-29T08:58:51;8.30;99.90
52731;DHT22;38624;53.242;6.974;2023-12-29T09:01:18;8.20;99.90
52731;DHT22;38624;53.242;6.974;2023-12-29T09:03:43;8.30;99.90
52731;DHT22;38624;53.242;6.974;2023-12-29T09:06:09;8.30;99.90
52731;DHT22;38624;53.242;6.974;2023-12-29T09:08:35;8.30;99.90
52731;DHT22;38624;53.242;6.974;2023-12-29T09:11:01;8.30;99.90
52731;DHT22;38624;53.242;6.974;2023-12-29T09:13:27;8.60;99.90
52731;DHT22;38624;53.242;6.974;2023-12-29T09:15:56;8.30;99.90
52731;DHT22;38624;53.242;6.974;2023-12-29T09:18:22;8.30;99.90
52731;DHT22;38624;53.242;6.974;2023-12-29T09:20:48;8.30;99.90
52731;DHT22;38624;53.242;6.974;2023-12-29T09:23:14;8.40;99.90
52731;DHT22;38624;53.242;6.974;2023-12-29T09:25:40;8.50;99.90
52731;DHT22;38624;53.242;6.974;2023-12-29T09:28:06;8.50;99.90
52731;DHT22;38624;53.242;6.974;2023-12-29T09:30:32;8.60;99.90
52731;DHT22;38624;53.242;6.974;2023-12-29T09:32:58;8.60;99.90
52731;DHT22;38624;53.242;6.974;2023-12-29T09:35:24;8.70;99.90
52731;DHT22;38624;53.242;6.974;2023-12-29T09:37:50;8.80;99.90
52731;DHT22;38624;53.242;6.974;2023-12-29T09:40:15;8.80;99.90
52731;DHT22;38624;53.242;6.974;2023-12-29T09:42:43;8.70;99.90
52731;DHT22;38624;53.242;6.974;2023-12-29T09:45:11;8.80;99.90
52731;DHT22;38624;53.242;6.974;2023-12-29T09:47:42;8.70;99.90
52731;DHT22;38624;53.242;6.974;2023-12-29T09:50:13;8.70;99.90
52731;DHT22;38624;53.242;6.974;2023-12-29T09:52:40;8.90;99.90
52731;DHT22;38624;53.242;6.974;2023-12-29T09:55:10;8.80;99.90
52731;DHT22;38624;53.242;6.974;2023-12-29T09:57:40;8.70;99.90
52731;DHT22;38624;53.242;6.974;2023-12-29T10:00:07;8.70;99.90
52731;DHT22;38624;53.242;6.974;2023-12-29T10:02:36;8.70;99.90
52731;DHT22;38624;53.242;6.974;2023-12-29T10:05:03;8.70;99.90
52731;DHT22;38624;53.242;6.974;2023-12-29T10:07:32;8.70;99.90
52731;DHT22;38624;53.242;6.974;2023-12-29T10:10:01;8.90;99.90
52731;DHT22;38624;53.242;6.974;2023-12-29T10:12:28;8.90;99.90
52731;DHT22;38624;53.242;6.974;2023-12-29T10:15:12;8.90;99.90
52731;DHT22;38624;53.242;6.974;2023-12-29T10:23:48;8.90;99.90
52731;DHT22;38624;53.242;6.974;2023-12-29T10:26:15;9.00;99.90
52731;DHT22;38624;53.242;6.974;2023-12-29T10:28:41;9.00;99.90
52731;DHT22;38624;53.242;6.974;2023-12-29T10:31:09;9.20;99.90
52731;DHT22;38624;53.242;6.974;2023-12-29T10:33:39;9.00;99.90
52731;DHT22;38624;53.242;6.974;2023-12-29T10:36:05;9.00;99.90
52731;DHT22;38624;53.242;6.974;2023-12-29T10:38:33;9.00;99.90
52731;DHT22;38624;53.242;6.974;2023-12-29T10:41:16;9.60;99.90
52731;DHT22;38624;53.242;6.974;2023-12-29T10:43:43;9.20;99.90
52731;DHT22;38624;53.242;6.974;2023-12-29T10:46:11;9.30;99.90
52731;DHT22;38624;53.242;6.974;2023-12-29T10:48:37;9.30;99.90
52731;DHT22;38624;53.242;6.974;2023-12-29T10:51:04;9.50;99.90
52731;DHT22;38624;53.242;6.974;2023-12-29T10:53:34;9.60;99.90
52731;DHT22;38624;53.242;6.974;2023-12-29T10:56:00;9.60;99.90
52731;DHT22;38624;53.242;6.974;2023-12-29T10:58:30;9.70;99.90
52731;DHT22;38624;53.242;6.974;2023-12-29T11:00:57;9.90;99.90
52731;DHT22;38624;53.242;6.974;2023-12-29T11:03:23;9.70;99.90
52731;DHT22;38624;53.242;6.974;2023-12-29T11:05:50;9.60;99.90
52731;DHT22;38624;53.242;6.974;2023-12-29T11:08:20;9.70;99.90
52731;DHT22;38624;53.242;6.974;2023-12-29T11:10:50;9.50;99.90
52731;DHT22;38624;53.242;6.974;2023-12-29T11:13:17;9.40;99.90
52731;DHT22;38624;53.242;6.974;2023-12-29T11:15:44;9.50;99.90
52731;DHT22;38624;53.242;6.974;2023-12-29T11:18:15;9.50;99.90
52731;DHT22;38624;53.242;6.974;2023-12-29T11:20:42;9.70;99.90
52731;DHT22;38624;53.242;6.974;2023-12-29T11:23:12;9.70;99.90
52731;DHT22;38624;53.242;6.974;2023-12-29T11:25:43;9.80;99.90
52731;DHT22;38624;53.242;6.974;2023-12-29T11:28:11;10.00;99.90
52731;DHT22;38624;53.242;6.974;2023-12-29T11:30:40;9.80;99.90
52731;DHT22;38624;53.242;6.974;2023-12-29T11:33:17;9.70;99.90
52731;DHT22;38624;53.242;6.974;2023-12-29T11:36:00;9.70;99.90
52731;DHT22;38624;53.242;6.974;2023-12-29T11:41:17;9.60;99.90
52731;DHT22;38624;53.242;6.974;2023-12-29T11:43:45;9.60;99.90
52731;DHT22;38624;53.242;6.974;2023-12-29T11:48:59;9.50;99.90
52731;DHT22;38624;53.242;6.974;2023-12-29T11:51:43;9.40;99.90
52731;DHT22;38624;53.242;6.974;2023-12-29T11:54:09;9.20;99.90
52731;DHT22;38624;53.242;6.974;2023-12-29T11:56:39;9.40;99.90
52731;DHT22;38624;53.242;6.974;2023-12-29T11:59:19;9.50;99.90
52731;DHT22;38624;53.242;6.974;2023-12-29T12:01:51;9.70;99.90
52731;DHT22;38624;53.242;6.974;2023-12-29T12:04:45;9.80;99.90
52731;DHT22;38624;53.242;6.974;2023-12-29T12:12:48;10.30;99.90
52731;DHT22;38624;53.242;6.974;2023-12-29T12:18:03;10.30;99.90
52731;DHT22;38624;53.242;6.974;2023-12-29T12:20:33;10.40;99.90
52731;DHT22;38624;53.242;6.974;2023-12-29T12:23:14;10.50;99.90
52731;DHT22;38624;53.242;6.974;2023-12-29T12:25:43;10.50;99.90
52731;DHT22;38624;53.242;6.974;2023-12-29T12:28:13;10.40;99.90
52731;DHT22;38624;53.242;6.974;2023-12-29T12:30:39;10.20;99.90
52731;DHT22;38624;53.242;6.974;2023-12-29T12:33:05;10.10;99.90
52731;DHT22;38624;53.242;6.974;2023-12-29T12:35:31;10.00;99.90
52731;DHT22;38624;53.242;6.974;2023-12-29T12:38:26;9.80;99.90
52731;DHT22;38624;53.242;6.974;2023-12-29T12:40:56;9.60;99.90
52731;DHT22;38624;53.242;6.974;2023-12-29T12:43:24;9.70;99.90
52731;DHT22;38624;53.242;6.974;2023-12-29T12:45:54;9.70;99.90
52731;DHT22;38624;53.242;6.974;2023-12-29T12:48:34;9.50;99.90
52731;DHT22;38624;53.242;6.974;2023-12-29T12:51:01;9.60;99.90
52731;DHT22;38624;53.242;6.974;2023-12-29T12:53:28;9.60;99.90
52731;DHT22;38624;53.242;6.974;2023-12-29T12:55:54;9.60;99.90
52731;DHT22;38624;53.242;6.974;2023-12-29T12:58:20;9.50;99.90
52731;DHT22;38624;53.242;6.974;2023-12-29T13:00:47;9.40;99.90
52731;DHT22;38624;53.242;6.974;2023-12-29T13:03:14;9.20;99.90
52731;DHT22;38624;53.242;6.974;2023-12-29T13:05:40;9.10;99.90
52731;DHT22;38624;53.242;6.974;2023-12-29T13:08:06;8.90;99.90
52731;DHT22;38624;53.242;6.974;2023-12-29T13:10:33;9.00;99.90
52731;DHT22;38624;53.242;6.974;2023-12-29T13:12:59;8.90;99.90
52731;DHT22;38624;53.242;6.974;2023-12-29T13:15:25;9.50;99.90
52731;DHT22;38624;53.242;6.974;2023-12-29T13:17:54;9.00;99.90
52731;DHT22;38624;53.242;6.974;2023-12-29T13:20:20;8.80;99.90
52731;DHT22;38624;53.242;6.974;2023-12-29T13:22:49;9.00;99.90
52731;DHT22;38624;53.242;6.974;2023-12-29T13:25:21;8.90;99.90
52731;DHT22;38624;53.242;6.974;2023-12-29T13:27:50;8.80;99.90
52731;DHT22;38624;53.242;6.974;2023-12-29T13:30:17;8.80;99.90
52731;DHT22;38624;53.242;6.974;2023-12-29T13:32:43;8.80;99.90
52731;DHT22;38624;53.242;6.974;2023-12-29T13:35:22;8.80;99.90
52731;DHT22;38624;53.242;6.974;2023-12-29T13:38:10;8.70;99.90
52731;DHT22;38624;53.242;6.974;2023-12-29T13:40:53;8.60;99.90
52731;DHT22;38624;53.242;6.974;2023-12-29T13:43:20;8.60;99.90
52731;DHT22;38624;53.242;6.974;2023-12-29T13:45:47;8.60;99.90
52731;DHT22;38624;53.242;6.974;2023-12-29T13:48:14;8.70;99.90
52731;DHT22;38624;53.242;6.974;2023-12-29T13:50:45;8.60;99.90
52731;DHT22;38624;53.242;6.974;2023-12-29T13:53:19;8.60;99.90
52731;DHT22;38624;53.242;6.974;2023-12-29T13:55:45;8.60;99.90
52731;DHT22;38624;53.242;6.974;2023-12-29T13:58:11;8.60;99.90
52731;DHT22;38624;53.242;6.974;2023-12-29T14:00:38;8.40;99.90
52731;DHT22;38624;53.242;6.974;2023-12-29T14:03:22;8.30;99.90
52731;DHT22;38624;53.242;6.974;2023-12-29T14:05:55;8.30;99.90
52731;DHT22;38624;53.242;6.974;2023-12-29T14:08:39;8.50;99.90
52731;DHT22;38624;53.242;6.974;2023-12-29T14:11:09;8.60;99.90
52731;DHT22;38624;53.242;6.974;2023-12-29T14:13:35;8.40;99.90
52731;DHT22;38624;53.242;6.974;2023-12-29T14:16:01;8.20;99.90
52731;DHT22;38624;53.242;6.974;2023-12-29T14:20:59;8.50;99.90
52731;DHT22;38624;53.242;6.974;2023-12-29T14:23:25;8.40;99.90
52731;DHT22;38624;53.242;6.974;2023-12-29T14:25:51;8.30;99.90
52731;DHT22;38624;53.242;6.974;2023-12-29T14:28:20;8.30;99.90
52731;DHT22;38624;53.242;6.974;2023-12-29T14:30:47;8.50;99.90
52731;DHT22;38624;53.242;6.974;2023-12-29T14:33:13;8.40;99.90
52731;DHT22;38624;53.242;6.974;2023-12-29T14:35:39;8.40;99.90
52731;DHT22;38624;53.242;6.974;2023-12-29T14:38:05;8.40;99.90
52731;DHT22;38624;53.242;6.974;2023-12-29T14:40:31;8.40;99.90
52731;DHT22;38624;53.242;6.974;2023-12-29T14:43:00;8.30;99.90
52731;DHT22;38624;53.242;6.974;2023-12-29T14:45:26;8.20;99.90
52731;DHT22;38624;53.242;6.974;2023-12-29T14:47:56;8.20;99.90
52731;DHT22;38624;53.242;6.974;2023-12-29T14:50:22;8.10;99.90
52731;DHT22;38624;53.242;6.974;2023-12-29T14:52:48;8.00;99.90
52731;DHT22;38624;53.242;6.974;2023-12-29T14:55:14;7.80;99.90
52731;DHT22;38624;53.242;6.974;2023-12-29T14:57:39;8.10;99.90
52731;DHT22;38624;53.242;6.974;2023-12-29T15:00:06;7.90;99.90
52731;DHT22;38624;53.242;6.974;2023-12-29T15:02:32;7.90;99.90
52731;DHT22;38624;53.242;6.974;2023-12-29T15:04:57;8.20;99.90
52731;DHT22;38624;53.242;6.974;2023-12-29T15:07:23;8.20;99.90
52731;DHT22;38624;53.242;6.974;2023-12-29T15:09:54;8.10;99.90
52731;DHT22;38624;53.242;6.974;2023-12-29T15:12:20;8.10;99.90
52731;DHT22;38624;53.242;6.974;2023-12-29T15:14:46;8.10;99.90
52731;DHT22;38624;53.242;6.974;2023-12-29T15:17:11;8.10;99.90
52731;DHT22;38624;53.242;6.974;2023-12-29T15:19:37;8.10;99.90
52731;DHT22;38624;53.242;6.974;2023-12-29T15:22:03;8.10;99.90
52731;DHT22;38624;53.242;6.974;2023-12-29T15:24:28;8.50;99.90
52731;DHT22;38624;53.242;6.974;2023-12-29T15:26:54;8.10;99.90
52731;DHT22;38624;53.242;6.974;2023-12-29T15:29:20;8.10;99.90
52731;DHT22;38624;53.242;6.974;2023-12-29T15:31:46;8.20;99.90
52731;DHT22;38624;53.242;6.974;2023-12-29T15:34:12;8.20;99.90
52731;DHT22;38624;53.242;6.974;2023-12-29T15:36:38;8.20;99.90
52731;DHT22;38624;53.242;6.974;2023-12-29T15:39:04;8.30;99.90
52731;DHT22;38624;53.242;6.974;2023-12-29T15:41:33;8.20;99.90
52731;DHT22;38624;53.242;6.974;2023-12-29T15:43:59;8.10;99.90
52731;DHT22;38624;53.242;6.974;2023-12-29T15:46:25;7.90;99.90
52731;DHT22;38624;53.242;6.974;2023-12-29T15:48:51;8.00;99.90
52731;DHT22;38624;53.242;6.974;2023-12-29T15:51:17;7.90;99.90
52731;DHT22;38624;53.242;6.974;2023-12-29T15:53:43;8.00;99.90
52731;DHT22;38624;53.242;6.974;2023-12-29T15:56:19;7.90;99.90
52731;DHT22;38624;53.242;6.974;2023-12-29T15:58:48;7.90;99.90
52731;DHT22;38624;53.242;6.974;2023-12-29T16:01:24;7.90;99.90
52731;DHT22;38624;53.242;6.974;2023-12-29T16:03:52;8.10;99.90
52731;DHT22;38624;53.242;6.974;2023-12-29T16:06:22;8.00;99.90
52731;DHT22;38624;53.242;6.974;2023-12-29T16:08:47;8.20;99.90
52731;DHT22;38624;53.242;6.974;2023-12-29T16:11:23;8.40;99.90
52731;DHT22;38624;53.242;6.974;2023-12-29T16:13:51;8.10;99.90